CAL903 RCTP-VHHH
Flight info
| Callsign | CAL903 |
|---|---|
| Flight time | 1h 26m |
| Altitude | 38000 |
| Route | CHALI1A CHALI T3 MKG A1 ELATO V522 ABBEY |
| Aircraft | B77W/H-SDE1E2E3FGHIJ2J3J4J5M1RWXY/LB1D1 |
Departure
| Time | 2026-05-04 00:19 |
|---|---|
| Airport | Taiwan Taoyuan International Airport (RCTP) |
Arrival
| Time | 2026-05-04 01:45 |
|---|---|
| Airport | Hong Kong International Airport (VHHH) |
| Time | Latitude | Longitude | Altitude | Speed | Heading |
|---|---|---|---|---|---|
| 2026-05-03 23:56 | 25.08264 | 121.23523 | 121 ft | 0 kts | 139° |
| 2026-05-04 00:06 | 25.08267 | 121.23520 | 121 ft | 2 kts | 139° |
| 2026-05-04 00:06 | 25.08278 | 121.23509 | 121 ft | 2 kts | 139° |
| 2026-05-04 00:07 | 25.08290 | 121.23498 | 121 ft | 2 kts | 139° |
| 2026-05-04 00:07 | 25.08301 | 121.23488 | 121 ft | 2 kts | 139° |
| 2026-05-04 00:07 | 25.08312 | 121.23477 | 121 ft | 2 kts | 139° |
| 2026-05-04 00:07 | 25.08324 | 121.23467 | 121 ft | 2 kts | 139° |
| 2026-05-04 00:08 | 25.08336 | 121.23456 | 121 ft | 2 kts | 150° |
| 2026-05-04 00:08 | 25.08350 | 121.23450 | 121 ft | 2 kts | 179° |
| 2026-05-04 00:08 | 25.08365 | 121.23453 | 121 ft | 2 kts | 201° |
| 2026-05-04 00:08 | 25.08378 | 121.23460 | 121 ft | 2 kts | 224° |
| 2026-05-04 00:09 | 25.08388 | 121.23473 | 121 ft | 2 kts | 233° |
| 2026-05-04 00:09 | 25.08397 | 121.23486 | 121 ft | 2 kts | 230° |
| 2026-05-04 00:09 | 25.08406 | 121.23498 | 121 ft | 2 kts | 229° |
| 2026-05-04 00:09 | 25.08414 | 121.23508 | 121 ft | 0 kts | 229° |
| 2026-05-04 00:11 | 25.08401 | 121.23492 | 121 ft | 6 kts | 229° |
| 2026-05-04 00:12 | 25.08359 | 121.23439 | 121 ft | 10 kts | 229° |
| 2026-05-04 00:12 | 25.08309 | 121.23375 | 121 ft | 11 kts | 230° |
| 2026-05-04 00:12 | 25.08259 | 121.23310 | 121 ft | 11 kts | 229° |
| 2026-05-04 00:12 | 25.08208 | 121.23244 | 121 ft | 11 kts | 229° |
| 2026-05-04 00:13 | 25.08168 | 121.23189 | 121 ft | 7 kts | 245° |
| 2026-05-04 00:13 | 25.08182 | 121.23130 | 121 ft | 8 kts | 311° |
| 2026-05-04 00:13 | 25.08198 | 121.23068 | 121 ft | 10 kts | 246° |
| 2026-05-04 00:13 | 25.08145 | 121.22997 | 121 ft | 13 kts | 229° |
| 2026-05-04 00:14 | 25.08082 | 121.22916 | 121 ft | 14 kts | 229° |
| 2026-05-04 00:14 | 25.08018 | 121.22835 | 121 ft | 13 kts | 229° |
| 2026-05-04 00:14 | 25.07951 | 121.22749 | 121 ft | 15 kts | 229° |
| 2026-05-04 00:14 | 25.07878 | 121.22656 | 121 ft | 15 kts | 229° |
| 2026-05-04 00:15 | 25.07807 | 121.22566 | 121 ft | 15 kts | 230° |
| 2026-05-04 00:15 | 25.07739 | 121.22478 | 121 ft | 14 kts | 228° |
| 2026-05-04 00:15 | 25.07672 | 121.22396 | 121 ft | 14 kts | 228° |
| 2026-05-04 00:15 | 25.07607 | 121.22314 | 121 ft | 14 kts | 229° |
| 2026-05-04 00:16 | 25.07543 | 121.22231 | 121 ft | 13 kts | 229° |
| 2026-05-04 00:16 | 25.07481 | 121.22153 | 121 ft | 13 kts | 228° |
| 2026-05-04 00:16 | 25.07418 | 121.22075 | 121 ft | 13 kts | 228° |
| 2026-05-04 00:16 | 25.07358 | 121.21998 | 121 ft | 13 kts | 230° |
| 2026-05-04 00:17 | 25.07297 | 121.21920 | 121 ft | 13 kts | 230° |
| 2026-05-04 00:17 | 25.07239 | 121.21845 | 121 ft | 12 kts | 228° |
| 2026-05-04 00:17 | 25.07183 | 121.21777 | 121 ft | 10 kts | 229° |
| 2026-05-04 00:17 | 25.07188 | 121.21707 | 121 ft | 10 kts | 307° |
| 2026-05-04 00:18 | 25.07240 | 121.21653 | 121 ft | 11 kts | 322° |
| 2026-05-04 00:18 | 25.07300 | 121.21629 | 121 ft | 8 kts | 22° |
| 2026-05-04 00:18 | 25.07348 | 121.21676 | 121 ft | 11 kts | 49° |
| 2026-05-04 00:18 | 25.07521 | 121.21896 | 121 ft | 76 kts | 49° |
| 2026-05-04 00:19 | 25.08039 | 121.22550 | 137 ft | 145 kts | 51° |
| 2026-05-04 00:19 | 25.08736 | 121.23429 | 798 ft | 156 kts | 50° |
| 2026-05-04 00:19 | 25.09424 | 121.24297 | 1676 ft | 152 kts | 50° |
| 2026-05-04 00:19 | 25.10145 | 121.25223 | 2064 ft | 169 kts | 50° |
| 2026-05-04 00:20 | 25.10963 | 121.26270 | 2522 ft | 187 kts | 50° |
| 2026-05-04 00:20 | 25.11817 | 121.27364 | 3315 ft | 188 kts | 50° |
| 2026-05-04 00:20 | 25.12692 | 121.28485 | 3904 ft | 199 kts | 50° |
| 2026-05-04 00:20 | 25.13717 | 121.29586 | 4473 ft | 210 kts | 33° |
| 2026-05-04 00:21 | 25.15124 | 121.30190 | 5039 ft | 222 kts | 10° |
| 2026-05-04 00:21 | 25.16700 | 121.30146 | 5565 ft | 233 kts | 345° |
| 2026-05-04 00:21 | 25.18173 | 121.29371 | 6124 ft | 239 kts | 319° |
| 2026-05-04 00:21 | 25.19356 | 121.27949 | 6350 ft | 263 kts | 304° |
| 2026-05-04 00:22 | 25.20455 | 121.26274 | 6846 ft | 277 kts | 302° |
| 2026-05-04 00:22 | 25.21583 | 121.24538 | 7733 ft | 276 kts | 301° |
| 2026-05-04 00:22 | 25.22689 | 121.22833 | 8584 ft | 275 kts | 301° |
| 2026-05-04 00:22 | 25.23801 | 121.21117 | 9341 ft | 277 kts | 300° |
| 2026-05-04 00:23 | 25.24917 | 121.19395 | 10128 ft | 278 kts | 299° |
| 2026-05-04 00:23 | 25.25904 | 121.17539 | 10546 ft | 289 kts | 289° |
| 2026-05-04 00:23 | 25.26599 | 121.15359 | 10743 ft | 309 kts | 278° |
| 2026-05-04 00:23 | 25.26876 | 121.12965 | 10989 ft | 325 kts | 267° |
| 2026-05-04 00:24 | 25.26658 | 121.10425 | 11342 ft | 339 kts | 255° |
| 2026-05-04 00:24 | 25.25889 | 121.07901 | 11740 ft | 353 kts | 243° |
| 2026-05-04 00:24 | 25.24566 | 121.05627 | 12457 ft | 358 kts | 230° |
| 2026-05-04 00:24 | 25.22794 | 121.03710 | 13477 ft | 357 kts | 223° |
| 2026-05-04 00:25 | 25.20988 | 121.01852 | 14442 ft | 358 kts | 225° |
| 2026-05-04 00:25 | 25.19145 | 120.99933 | 15284 ft | 366 kts | 223° |
| 2026-05-04 00:25 | 25.17244 | 120.98071 | 16135 ft | 372 kts | 225° |
| 2026-05-04 00:25 | 25.15334 | 120.96137 | 16957 ft | 377 kts | 226° |
| 2026-05-04 00:26 | 25.13396 | 120.94125 | 17727 ft | 384 kts | 227° |
| 2026-05-04 00:26 | 25.11449 | 120.92064 | 18419 ft | 393 kts | 227° |
| 2026-05-04 00:26 | 25.09481 | 120.89962 | 19225 ft | 398 kts | 227° |
| 2026-05-04 00:26 | 25.07497 | 120.87837 | 20099 ft | 400 kts | 227° |
| 2026-05-04 00:27 | 25.05512 | 120.85706 | 20864 ft | 405 kts | 227° |
| 2026-05-04 00:27 | 25.03474 | 120.83517 | 21548 ft | 411 kts | 227° |
| 2026-05-04 00:27 | 25.01425 | 120.81315 | 22264 ft | 416 kts | 227° |
| 2026-05-04 00:27 | 24.99351 | 120.79087 | 23044 ft | 419 kts | 227° |
| 2026-05-04 00:28 | 24.97266 | 120.76846 | 23758 ft | 423 kts | 227° |
| 2026-05-04 00:28 | 24.95164 | 120.74586 | 24461 ft | 427 kts | 227° |
| 2026-05-04 00:28 | 24.93024 | 120.72289 | 25221 ft | 430 kts | 227° |
| 2026-05-04 00:28 | 24.90876 | 120.69983 | 25983 ft | 433 kts | 227° |
| 2026-05-04 00:29 | 24.88687 | 120.67635 | 26737 ft | 436 kts | 227° |
| 2026-05-04 00:29 | 24.86444 | 120.65228 | 27490 ft | 439 kts | 226° |
| 2026-05-04 00:29 | 24.84242 | 120.62866 | 28148 ft | 444 kts | 226° |
| 2026-05-04 00:29 | 24.81965 | 120.60426 | 28785 ft | 449 kts | 226° |
| 2026-05-04 00:30 | 24.79667 | 120.57964 | 29400 ft | 454 kts | 226° |
| 2026-05-04 00:30 | 24.77383 | 120.55521 | 30139 ft | 455 kts | 227° |
| 2026-05-04 00:30 | 24.75111 | 120.53090 | 31001 ft | 452 kts | 227° |
| 2026-05-04 00:30 | 24.72782 | 120.50763 | 32027 ft | 447 kts | 222° |
| 2026-05-04 00:31 | 24.70230 | 120.48727 | 32951 ft | 443 kts | 219° |
| 2026-05-04 00:31 | 24.67673 | 120.46787 | 33738 ft | 442 kts | 219° |
| 2026-05-04 00:31 | 24.65131 | 120.44862 | 34421 ft | 442 kts | 220° |
| 2026-05-04 00:31 | 24.62598 | 120.42945 | 35104 ft | 441 kts | 220° |
| 2026-05-04 00:32 | 24.60060 | 120.41026 | 35826 ft | 439 kts | 220° |
| 2026-05-04 00:32 | 24.57572 | 120.39144 | 36552 ft | 436 kts | 220° |
| 2026-05-04 00:32 | 24.55056 | 120.37241 | 37105 ft | 435 kts | 220° |
| 2026-05-04 00:32 | 24.52539 | 120.35339 | 37537 ft | 437 kts | 220° |
| 2026-05-04 00:33 | 24.50018 | 120.33433 | 37951 ft | 438 kts | 220° |
| 2026-05-04 00:33 | 24.44932 | 120.29593 | 38041 ft | 437 kts | 220° |
| 2026-05-04 00:34 | 24.39939 | 120.25713 | 38039 ft | 437 kts | 220° |
| 2026-05-04 00:34 | 24.34970 | 120.21847 | 38038 ft | 436 kts | 221° |
| 2026-05-04 00:35 | 24.30015 | 120.17997 | 38028 ft | 437 kts | 221° |
| 2026-05-04 00:35 | 24.24999 | 120.14106 | 38016 ft | 438 kts | 220° |
| 2026-05-04 00:36 | 24.20026 | 120.10253 | 38010 ft | 437 kts | 221° |
| 2026-05-04 00:36 | 24.15018 | 120.06377 | 38017 ft | 438 kts | 220° |
| 2026-05-04 00:37 | 24.09988 | 120.02490 | 38010 ft | 439 kts | 220° |
| 2026-05-04 00:37 | 24.04976 | 119.98619 | 37999 ft | 439 kts | 220° |
| 2026-05-04 00:38 | 23.99920 | 119.94719 | 37991 ft | 440 kts | 220° |
| 2026-05-04 00:38 | 23.94895 | 119.90849 | 37993 ft | 440 kts | 220° |
| 2026-05-04 00:39 | 23.89870 | 119.86983 | 37989 ft | 441 kts | 220° |
| 2026-05-04 00:39 | 23.84799 | 119.83084 | 37994 ft | 442 kts | 220° |
| 2026-05-04 00:40 | 23.79741 | 119.79201 | 37994 ft | 441 kts | 220° |
| 2026-05-04 00:40 | 23.74689 | 119.75325 | 37990 ft | 442 kts | 220° |
| 2026-05-04 00:41 | 23.69658 | 119.71468 | 37993 ft | 442 kts | 220° |
| 2026-05-04 00:41 | 23.64601 | 119.67596 | 37998 ft | 443 kts | 220° |
| 2026-05-04 00:42 | 23.59786 | 119.63304 | 37998 ft | 437 kts | 231° |
| 2026-05-04 00:42 | 23.56209 | 119.58005 | 37999 ft | 435 kts | 241° |
| 2026-05-04 00:43 | 23.53011 | 119.52467 | 37999 ft | 433 kts | 241° |
| 2026-05-04 00:43 | 23.49823 | 119.46958 | 37995 ft | 432 kts | 241° |
| 2026-05-04 00:44 | 23.46597 | 119.41393 | 37998 ft | 433 kts | 240° |
| 2026-05-04 00:44 | 23.43363 | 119.35825 | 37998 ft | 434 kts | 240° |
| 2026-05-04 00:45 | 23.40120 | 119.30249 | 38006 ft | 434 kts | 240° |
| 2026-05-04 00:45 | 23.36873 | 119.24674 | 38006 ft | 435 kts | 240° |
| 2026-05-04 00:46 | 23.33620 | 119.19096 | 38001 ft | 436 kts | 240° |
| 2026-05-04 00:46 | 23.30364 | 119.13517 | 37999 ft | 437 kts | 240° |
| 2026-05-04 00:47 | 23.27088 | 119.07911 | 38004 ft | 435 kts | 240° |
| 2026-05-04 00:47 | 23.23822 | 119.02327 | 37994 ft | 436 kts | 240° |
| 2026-05-04 00:48 | 23.20539 | 118.96721 | 38003 ft | 437 kts | 240° |
| 2026-05-04 00:48 | 23.17268 | 118.91143 | 37994 ft | 436 kts | 240° |
| 2026-05-04 00:49 | 23.13989 | 118.85555 | 37999 ft | 437 kts | 240° |
| 2026-05-04 00:49 | 23.10725 | 118.79999 | 37997 ft | 437 kts | 240° |
| 2026-05-04 00:50 | 23.07438 | 118.74412 | 38006 ft | 437 kts | 240° |
| 2026-05-04 00:50 | 23.04141 | 118.68812 | 38006 ft | 438 kts | 240° |
| 2026-05-04 00:51 | 23.00833 | 118.63201 | 38005 ft | 438 kts | 240° |
| 2026-05-04 00:51 | 22.97548 | 118.57636 | 38004 ft | 438 kts | 240° |
| 2026-05-04 00:52 | 22.94233 | 118.52029 | 38004 ft | 438 kts | 240° |
| 2026-05-04 00:52 | 22.90928 | 118.46474 | 38004 ft | 439 kts | 240° |
| 2026-05-04 00:53 | 22.87643 | 118.40955 | 38006 ft | 440 kts | 240° |
| 2026-05-04 00:53 | 22.84302 | 118.35350 | 38004 ft | 440 kts | 239° |
| 2026-05-04 00:54 | 22.80973 | 118.29771 | 38014 ft | 440 kts | 239° |
| 2026-05-04 00:54 | 22.77625 | 118.24165 | 38011 ft | 441 kts | 239° |
| 2026-05-04 00:55 | 22.74271 | 118.18555 | 38008 ft | 440 kts | 239° |
| 2026-05-04 00:55 | 22.70941 | 118.12990 | 38010 ft | 440 kts | 239° |
| 2026-05-04 00:56 | 22.67581 | 118.07382 | 38009 ft | 439 kts | 239° |
| 2026-05-04 00:56 | 22.64237 | 118.01807 | 38010 ft | 440 kts | 239° |
| 2026-05-04 00:57 | 22.60909 | 117.96265 | 38006 ft | 439 kts | 239° |
| 2026-05-04 00:57 | 22.57559 | 117.90642 | 38006 ft | 441 kts | 240° |
| 2026-05-04 00:58 | 22.54218 | 117.85014 | 38004 ft | 441 kts | 240° |
| 2026-05-04 00:58 | 22.50868 | 117.79380 | 38005 ft | 442 kts | 240° |
| 2026-05-04 00:59 | 22.47506 | 117.73734 | 38003 ft | 442 kts | 240° |
| 2026-05-04 00:59 | 22.44152 | 117.68107 | 38003 ft | 442 kts | 239° |
| 2026-05-04 01:00 | 22.40788 | 117.62470 | 38002 ft | 444 kts | 240° |
| 2026-05-04 01:00 | 22.37429 | 117.56848 | 38003 ft | 443 kts | 239° |
| 2026-05-04 01:01 | 22.34547 | 117.50927 | 37999 ft | 441 kts | 252° |
| 2026-05-04 01:01 | 22.33258 | 117.44464 | 38003 ft | 439 kts | 266° |
| 2026-05-04 01:02 | 22.33101 | 117.37863 | 38002 ft | 439 kts | 269° |
| 2026-05-04 01:02 | 22.32992 | 117.31252 | 38017 ft | 439 kts | 269° |
| 2026-05-04 01:03 | 22.32876 | 117.24680 | 38020 ft | 438 kts | 268° |
| 2026-05-04 01:03 | 22.32753 | 117.18024 | 38021 ft | 438 kts | 268° |
| 2026-05-04 01:04 | 22.32627 | 117.11430 | 38020 ft | 438 kts | 268° |
| 2026-05-04 01:04 | 22.32499 | 117.04844 | 38021 ft | 439 kts | 268° |
| 2026-05-04 01:05 | 22.32366 | 116.98227 | 38021 ft | 438 kts | 268° |
| 2026-05-04 01:05 | 22.32232 | 116.91671 | 38018 ft | 438 kts | 268° |
| 2026-05-04 01:06 | 22.32095 | 116.85079 | 38017 ft | 439 kts | 269° |
| 2026-05-04 01:06 | 22.31954 | 116.78455 | 38018 ft | 439 kts | 268° |
| 2026-05-04 01:07 | 22.31811 | 116.71867 | 38017 ft | 438 kts | 268° |
| 2026-05-04 01:07 | 22.31666 | 116.65308 | 38019 ft | 439 kts | 268° |
| 2026-05-04 01:08 | 22.31518 | 116.58707 | 38026 ft | 439 kts | 268° |
| 2026-05-04 01:08 | 22.31368 | 116.52158 | 38027 ft | 437 kts | 268° |
| 2026-05-04 01:09 | 22.31215 | 116.45566 | 38027 ft | 439 kts | 268° |
| 2026-05-04 01:09 | 22.31058 | 116.38975 | 38025 ft | 437 kts | 268° |
| 2026-05-04 01:10 | 22.30901 | 116.32433 | 38039 ft | 438 kts | 268° |
| 2026-05-04 01:10 | 22.30740 | 116.25890 | 38037 ft | 437 kts | 268° |
| 2026-05-04 01:11 | 22.30577 | 116.19299 | 38036 ft | 437 kts | 268° |
| 2026-05-04 01:11 | 22.30411 | 116.12741 | 38006 ft | 434 kts | 268° |
| 2026-05-04 01:11 | 22.30329 | 116.09531 | 37422 ft | 430 kts | 268° |
| 2026-05-04 01:12 | 22.30245 | 116.06313 | 36519 ft | 432 kts | 268° |
| 2026-05-04 01:12 | 22.30161 | 116.03064 | 35646 ft | 432 kts | 267° |
| 2026-05-04 01:12 | 22.30076 | 115.99839 | 34811 ft | 432 kts | 267° |
| 2026-05-04 01:12 | 22.29991 | 115.96604 | 33975 ft | 432 kts | 267° |
| 2026-05-04 01:13 | 22.29904 | 115.93345 | 33133 ft | 433 kts | 267° |
| 2026-05-04 01:13 | 22.29816 | 115.90069 | 32300 ft | 452 kts | 267° |
| 2026-05-04 01:13 | 22.29723 | 115.86639 | 31402 ft | 460 kts | 267° |
| 2026-05-04 01:13 | 22.29629 | 115.83209 | 30533 ft | 459 kts | 268° |
| 2026-05-04 01:14 | 22.29538 | 115.79784 | 30025 ft | 451 kts | 268° |
| 2026-05-04 01:14 | 22.29451 | 115.76434 | 29502 ft | 443 kts | 267° |
| 2026-05-04 01:14 | 22.29363 | 115.73092 | 28927 ft | 437 kts | 268° |
| 2026-05-04 01:14 | 22.29278 | 115.69888 | 28359 ft | 432 kts | 268° |
| 2026-05-04 01:15 | 22.29191 | 115.66661 | 27780 ft | 426 kts | 268° |
| 2026-05-04 01:15 | 22.29105 | 115.63473 | 27196 ft | 422 kts | 267° |
| 2026-05-04 01:15 | 22.29020 | 115.60337 | 26621 ft | 417 kts | 267° |
| 2026-05-04 01:15 | 22.28935 | 115.57244 | 26047 ft | 412 kts | 267° |
| 2026-05-04 01:16 | 22.28851 | 115.54185 | 25470 ft | 408 kts | 267° |
| 2026-05-04 01:16 | 22.28765 | 115.51116 | 24896 ft | 403 kts | 267° |
| 2026-05-04 01:16 | 22.28682 | 115.48137 | 24328 ft | 399 kts | 267° |
| 2026-05-04 01:16 | 22.28598 | 115.45141 | 23753 ft | 395 kts | 267° |
| 2026-05-04 01:17 | 22.28514 | 115.42194 | 23201 ft | 398 kts | 267° |
| 2026-05-04 01:17 | 22.28427 | 115.39181 | 22619 ft | 407 kts | 267° |
| 2026-05-04 01:17 | 22.28338 | 115.36102 | 22017 ft | 406 kts | 267° |
| 2026-05-04 01:17 | 22.28250 | 115.33062 | 21438 ft | 403 kts | 267° |
| 2026-05-04 01:18 | 22.28161 | 115.30087 | 20858 ft | 399 kts | 266° |
| 2026-05-04 01:18 | 22.28070 | 115.27082 | 20261 ft | 396 kts | 266° |
| 2026-05-04 01:18 | 22.27979 | 115.24119 | 19658 ft | 393 kts | 266° |
| 2026-05-04 01:18 | 22.27889 | 115.21208 | 19067 ft | 390 kts | 266° |
| 2026-05-04 01:19 | 22.27799 | 115.18288 | 18476 ft | 387 kts | 266° |
| 2026-05-04 01:19 | 22.27707 | 115.15372 | 17871 ft | 384 kts | 266° |
| 2026-05-04 01:19 | 22.27616 | 115.12470 | 17274 ft | 381 kts | 266° |
| 2026-05-04 01:19 | 22.27527 | 115.09620 | 16685 ft | 378 kts | 266° |
| 2026-05-04 01:20 | 22.27437 | 115.06809 | 16097 ft | 376 kts | 266° |
| 2026-05-04 01:20 | 22.27348 | 115.03993 | 15506 ft | 373 kts | 266° |
| 2026-05-04 01:20 | 22.27259 | 115.01228 | 14925 ft | 371 kts | 266° |
| 2026-05-04 01:20 | 22.27169 | 114.98449 | 14339 ft | 368 kts | 266° |
| 2026-05-04 01:21 | 22.27080 | 114.95700 | 13752 ft | 365 kts | 267° |
| 2026-05-04 01:21 | 22.26992 | 114.92983 | 13174 ft | 362 kts | 267° |
| 2026-05-04 01:21 | 22.26904 | 114.90293 | 12600 ft | 359 kts | 267° |
| 2026-05-04 01:21 | 22.26816 | 114.87612 | 12026 ft | 357 kts | 267° |
| 2026-05-04 01:22 | 22.26727 | 114.84936 | 11446 ft | 354 kts | 267° |
| 2026-05-04 01:22 | 22.26640 | 114.82304 | 11090 ft | 345 kts | 267° |
| 2026-05-04 01:22 | 22.26319 | 114.79811 | 11033 ft | 327 kts | 252° |
| 2026-05-04 01:22 | 22.25325 | 114.77660 | 11025 ft | 319 kts | 237° |
| 2026-05-04 01:23 | 22.23963 | 114.75780 | 10881 ft | 317 kts | 230° |
| 2026-05-04 01:23 | 22.22447 | 114.74030 | 10717 ft | 316 kts | 227° |
| 2026-05-04 01:23 | 22.20881 | 114.72356 | 10572 ft | 317 kts | 226° |
| 2026-05-04 01:23 | 22.19332 | 114.70749 | 10431 ft | 306 kts | 226° |
| 2026-05-04 01:24 | 22.17803 | 114.69175 | 10294 ft | 294 kts | 226° |
| 2026-05-04 01:24 | 22.16348 | 114.67680 | 10146 ft | 284 kts | 226° |
| 2026-05-04 01:24 | 22.14929 | 114.66222 | 10011 ft | 274 kts | 226° |
| 2026-05-04 01:24 | 22.13564 | 114.64821 | 9883 ft | 270 kts | 226° |
| 2026-05-04 01:25 | 22.12211 | 114.63431 | 9753 ft | 269 kts | 226° |
| 2026-05-04 01:25 | 22.10852 | 114.62037 | 9624 ft | 268 kts | 226° |
| 2026-05-04 01:25 | 22.09490 | 114.60639 | 9494 ft | 268 kts | 226° |
| 2026-05-04 01:25 | 22.08129 | 114.59243 | 9368 ft | 269 kts | 226° |
| 2026-05-04 01:26 | 22.06774 | 114.57855 | 9237 ft | 268 kts | 226° |
| 2026-05-04 01:26 | 22.05421 | 114.56467 | 9108 ft | 268 kts | 226° |
| 2026-05-04 01:26 | 22.04071 | 114.55084 | 8982 ft | 269 kts | 226° |
| 2026-05-04 01:26 | 22.02729 | 114.53664 | 8843 ft | 267 kts | 233° |
| 2026-05-04 01:27 | 22.01800 | 114.51950 | 8722 ft | 265 kts | 246° |
| 2026-05-04 01:27 | 22.01076 | 114.50128 | 8607 ft | 265 kts | 248° |
| 2026-05-04 01:27 | 22.00374 | 114.48286 | 8488 ft | 265 kts | 249° |
| 2026-05-04 01:27 | 21.99684 | 114.46474 | 8369 ft | 263 kts | 248° |
| 2026-05-04 01:28 | 21.98982 | 114.44638 | 8252 ft | 264 kts | 248° |
| 2026-05-04 01:28 | 21.98283 | 114.42812 | 8131 ft | 264 kts | 248° |
| 2026-05-04 01:28 | 21.97580 | 114.40976 | 8011 ft | 264 kts | 248° |
| 2026-05-04 01:28 | 21.96878 | 114.39143 | 7892 ft | 264 kts | 248° |
| 2026-05-04 01:29 | 21.96173 | 114.37303 | 7771 ft | 265 kts | 248° |
| 2026-05-04 01:29 | 21.95474 | 114.35480 | 7650 ft | 264 kts | 248° |
| 2026-05-04 01:29 | 21.94766 | 114.33633 | 7531 ft | 263 kts | 248° |
| 2026-05-04 01:29 | 21.94064 | 114.31805 | 7413 ft | 264 kts | 248° |
| 2026-05-04 01:30 | 21.93357 | 114.29962 | 7292 ft | 264 kts | 248° |
| 2026-05-04 01:30 | 21.92655 | 114.28134 | 7173 ft | 264 kts | 248° |
| 2026-05-04 01:30 | 21.91952 | 114.26305 | 7051 ft | 262 kts | 247° |
| 2026-05-04 01:30 | 21.91253 | 114.24485 | 6931 ft | 262 kts | 247° |
| 2026-05-04 01:31 | 21.90555 | 114.22669 | 6814 ft | 262 kts | 247° |
| 2026-05-04 01:31 | 21.89884 | 114.20858 | 6688 ft | 262 kts | 253° |
| 2026-05-04 01:31 | 21.89773 | 114.18888 | 6558 ft | 263 kts | 280° |
| 2026-05-04 01:31 | 21.90416 | 114.17017 | 6447 ft | 265 kts | 295° |
| 2026-05-04 01:32 | 21.91273 | 114.15266 | 6331 ft | 265 kts | 297° |
| 2026-05-04 01:32 | 21.92170 | 114.13531 | 6213 ft | 265 kts | 298° |
| 2026-05-04 01:32 | 21.93074 | 114.11788 | 6093 ft | 265 kts | 298° |
| 2026-05-04 01:32 | 21.93972 | 114.10053 | 5973 ft | 264 kts | 298° |
| 2026-05-04 01:33 | 21.94882 | 114.08294 | 5850 ft | 264 kts | 298° |
| 2026-05-04 01:33 | 21.95770 | 114.06576 | 5727 ft | 264 kts | 298° |
| 2026-05-04 01:33 | 21.96670 | 114.04833 | 5631 ft | 263 kts | 297° |
| 2026-05-04 01:33 | 21.97559 | 114.03110 | 5510 ft | 263 kts | 298° |
| 2026-05-04 01:34 | 21.98464 | 114.01357 | 5381 ft | 262 kts | 298° |
| 2026-05-04 01:34 | 21.99350 | 113.99640 | 5264 ft | 261 kts | 298° |
| 2026-05-04 01:34 | 22.00235 | 113.97925 | 5151 ft | 261 kts | 298° |
| 2026-05-04 01:34 | 22.01130 | 113.96190 | 5094 ft | 251 kts | 298° |
| 2026-05-04 01:35 | 22.01958 | 113.94582 | 5057 ft | 239 kts | 298° |
| 2026-05-04 01:35 | 22.02755 | 113.93036 | 4836 ft | 237 kts | 299° |
| 2026-05-04 01:35 | 22.03557 | 113.91478 | 4545 ft | 237 kts | 299° |
| 2026-05-04 01:35 | 22.04359 | 113.89921 | 4262 ft | 237 kts | 299° |
| 2026-05-04 01:36 | 22.05159 | 113.88368 | 3990 ft | 236 kts | 300° |
| 2026-05-04 01:36 | 22.05957 | 113.86817 | 3726 ft | 235 kts | 300° |
| 2026-05-04 01:36 | 22.06750 | 113.85277 | 3455 ft | 235 kts | 300° |
| 2026-05-04 01:36 | 22.07553 | 113.83714 | 3185 ft | 235 kts | 301° |
| 2026-05-04 01:37 | 22.08337 | 113.82189 | 3023 ft | 231 kts | 301° |
| 2026-05-04 01:37 | 22.09131 | 113.80647 | 3006 ft | 233 kts | 301° |
| 2026-05-04 01:37 | 22.09919 | 113.79113 | 3000 ft | 232 kts | 301° |
| 2026-05-04 01:37 | 22.10857 | 113.77754 | 2990 ft | 220 kts | 322° |
| 2026-05-04 01:38 | 22.12117 | 113.76916 | 2985 ft | 211 kts | 335° |
| 2026-05-04 01:38 | 22.13443 | 113.76216 | 2986 ft | 203 kts | 336° |
| 2026-05-04 01:38 | 22.14684 | 113.75590 | 2984 ft | 190 kts | 337° |
| 2026-05-04 01:38 | 22.15855 | 113.75005 | 2972 ft | 174 kts | 337° |
| 2026-05-04 01:39 | 22.16937 | 113.74465 | 2847 ft | 165 kts | 338° |
| 2026-05-04 01:39 | 22.17973 | 113.73949 | 2624 ft | 162 kts | 338° |
| 2026-05-04 01:39 | 22.19007 | 113.73433 | 2346 ft | 164 kts | 338° |
| 2026-05-04 01:39 | 22.20078 | 113.72899 | 2003 ft | 169 kts | 338° |
| 2026-05-04 01:40 | 22.21199 | 113.72340 | 2000 ft | 178 kts | 338° |
| 2026-05-04 01:40 | 22.22365 | 113.71842 | 2003 ft | 179 kts | 351° |
| 2026-05-04 01:40 | 22.23619 | 113.71880 | 1995 ft | 178 kts | 16° |
| 2026-05-04 01:40 | 22.24705 | 113.72498 | 1995 ft | 177 kts | 38° |
| 2026-05-04 01:41 | 22.25647 | 113.73344 | 2000 ft | 175 kts | 39° |
| 2026-05-04 01:41 | 22.26591 | 113.74216 | 2000 ft | 176 kts | 40° |
| 2026-05-04 01:41 | 22.27526 | 113.75085 | 2001 ft | 175 kts | 40° |
| 2026-05-04 01:41 | 22.28266 | 113.76130 | 2000 ft | 176 kts | 65° |
| 2026-05-04 01:42 | 22.28638 | 113.77373 | 1990 ft | 164 kts | 70° |
| 2026-05-04 01:42 | 22.28988 | 113.78499 | 1849 ft | 152 kts | 68° |
| 2026-05-04 01:42 | 22.29344 | 113.79574 | 1669 ft | 148 kts | 68° |
| 2026-05-04 01:42 | 22.29682 | 113.80617 | 1482 ft | 147 kts | 68° |
| 2026-05-04 01:43 | 22.30012 | 113.81632 | 1299 ft | 147 kts | 68° |
| 2026-05-04 01:43 | 22.30359 | 113.82697 | 1106 ft | 147 kts | 68° |
| 2026-05-04 01:43 | 22.30720 | 113.83759 | 889 ft | 150 kts | 68° |
| 2026-05-04 01:43 | 22.31072 | 113.84847 | 693 ft | 151 kts | 68° |
| 2026-05-04 01:44 | 22.31420 | 113.85909 | 509 ft | 152 kts | 69° |
| 2026-05-04 01:44 | 22.31765 | 113.87002 | 322 ft | 150 kts | 69° |
| 2026-05-04 01:44 | 22.32109 | 113.88069 | 122 ft | 149 kts | 70° |
| 2026-05-04 01:44 | 22.32440 | 113.89092 | 42 ft | 132 kts | 71° |
| 2026-05-04 01:45 | 22.32696 | 113.89886 | 42 ft | 89 kts | 71° |
| 2026-05-04 01:45 | 22.32849 | 113.90374 | 42 ft | 51 kts | 71° |
| 2026-05-04 01:45 | 22.32919 | 113.90909 | 42 ft | 19 kts | 100° |
| 2026-05-04 01:46 | 22.32898 | 113.91045 | 42 ft | 17 kts | 90° |
| 2026-05-04 01:46 | 22.32928 | 113.91172 | 42 ft | 16 kts | 71° |
| 2026-05-04 01:46 | 22.32965 | 113.91287 | 42 ft | 15 kts | 71° |
| 2026-05-04 01:46 | 22.33001 | 113.91398 | 42 ft | 15 kts | 70° |
| 2026-05-04 01:47 | 22.33035 | 113.91502 | 42 ft | 14 kts | 71° |
| 2026-05-04 01:47 | 22.33066 | 113.91602 | 42 ft | 13 kts | 70° |
| 2026-05-04 01:47 | 22.33097 | 113.91696 | 42 ft | 12 kts | 70° |
| 2026-05-04 01:47 | 22.33122 | 113.91787 | 42 ft | 12 kts | 74° |
| 2026-05-04 01:48 | 22.33149 | 113.91880 | 42 ft | 13 kts | 72° |
| 2026-05-04 01:48 | 22.33177 | 113.91976 | 42 ft | 13 kts | 72° |
| 2026-05-04 01:48 | 22.33201 | 113.92072 | 42 ft | 12 kts | 94° |
| 2026-05-04 01:48 | 22.33146 | 113.92134 | 42 ft | 12 kts | 162° |
| 2026-05-04 01:49 | 22.33064 | 113.92162 | 42 ft | 12 kts | 161° |
| 2026-05-04 01:49 | 22.32985 | 113.92191 | 42 ft | 11 kts | 161° |
| 2026-05-04 01:49 | 22.32904 | 113.92223 | 42 ft | 12 kts | 160° |
| 2026-05-04 01:49 | 22.32810 | 113.92259 | 42 ft | 15 kts | 160° |
| 2026-05-04 01:50 | 22.32712 | 113.92296 | 42 ft | 14 kts | 162° |
| 2026-05-04 01:50 | 22.32614 | 113.92333 | 42 ft | 14 kts | 160° |
| 2026-05-04 01:50 | 22.32529 | 113.92364 | 42 ft | 12 kts | 160° |
| 2026-05-04 01:50 | 22.32447 | 113.92396 | 42 ft | 12 kts | 160° |
| 2026-05-04 01:51 | 22.32375 | 113.92424 | 42 ft | 12 kts | 160° |
| 2026-05-04 01:51 | 22.32290 | 113.92457 | 42 ft | 12 kts | 160° |
| 2026-05-04 01:51 | 22.32211 | 113.92487 | 42 ft | 11 kts | 160° |
| 2026-05-04 01:51 | 22.32163 | 113.92532 | 42 ft | 10 kts | 98° |
| 2026-05-04 01:52 | 22.32181 | 113.92615 | 42 ft | 12 kts | 70° |
| 2026-05-04 01:52 | 22.32165 | 113.92700 | 42 ft | 12 kts | 144° |
| 2026-05-04 01:52 | 22.32074 | 113.92736 | 42 ft | 14 kts | 158° |
| 2026-05-04 01:52 | 22.31977 | 113.92778 | 42 ft | 14 kts | 158° |
| 2026-05-04 01:53 | 22.31888 | 113.92812 | 42 ft | 13 kts | 162° |
| 2026-05-04 01:53 | 22.31811 | 113.92823 | 42 ft | 9 kts | 208° |
| 2026-05-04 01:53 | 22.31769 | 113.92757 | 42 ft | 12 kts | 252° |
| 2026-05-04 01:53 | 22.31737 | 113.92657 | 42 ft | 15 kts | 251° |
| 2026-05-04 01:54 | 22.31702 | 113.92551 | 42 ft | 15 kts | 251° |
| 2026-05-04 01:54 | 22.31668 | 113.92442 | 42 ft | 14 kts | 251° |
| 2026-05-04 01:54 | 22.31634 | 113.92336 | 42 ft | 14 kts | 250° |
| 2026-05-04 01:54 | 22.31599 | 113.92231 | 42 ft | 14 kts | 250° |
| 2026-05-04 01:55 | 22.31566 | 113.92130 | 42 ft | 12 kts | 251° |
| 2026-05-04 01:55 | 22.31533 | 113.92069 | 42 ft | 9 kts | 206° |
| 2026-05-04 01:55 | 22.31458 | 113.92084 | 42 ft | 12 kts | 161° |
| 2026-05-04 01:55 | 22.31364 | 113.92118 | 42 ft | 14 kts | 161° |
| 2026-05-04 01:56 | 22.31263 | 113.92155 | 42 ft | 16 kts | 160° |
| 2026-05-04 01:56 | 22.31152 | 113.92197 | 42 ft | 16 kts | 161° |
| 2026-05-04 01:56 | 22.31045 | 113.92238 | 42 ft | 15 kts | 160° |
| 2026-05-04 01:56 | 22.30937 | 113.92277 | 42 ft | 16 kts | 162° |
| 2026-05-04 01:57 | 22.30830 | 113.92316 | 42 ft | 15 kts | 160° |
| 2026-05-04 01:57 | 22.30751 | 113.92349 | 42 ft | 9 kts | 140° |
| 2026-05-04 01:57 | 22.30744 | 113.92420 | 42 ft | 11 kts | 71° |
| 2026-05-04 01:57 | 22.30774 | 113.92509 | 42 ft | 13 kts | 70° |
| 2026-05-04 01:58 | 22.30806 | 113.92608 | 42 ft | 14 kts | 70° |
| 2026-05-04 01:58 | 22.30843 | 113.92709 | 42 ft | 13 kts | 55° |
| 2026-05-04 01:58 | 22.30924 | 113.92763 | 42 ft | 13 kts | 25° |
| 2026-05-04 01:58 | 22.31010 | 113.92807 | 42 ft | 13 kts | 26° |
| 2026-05-04 01:59 | 22.31074 | 113.92841 | 42 ft | 9 kts | 26° |
| 2026-05-04 01:59 | 22.31134 | 113.92872 | 42 ft | 9 kts | 26° |
| 2026-05-04 01:59 | 22.31174 | 113.92907 | 42 ft | 5 kts | 58° |
| 2026-05-04 01:59 | 22.31204 | 113.92927 | 42 ft | 5 kts | 5° |
| 2026-05-04 02:00 | 22.31242 | 113.92918 | 42 ft | 3 kts | 342° |
| 2026-05-04 02:00 | 22.31257 | 113.92913 | 42 ft | 0 kts | 342° |
| 2026-05-04 02:00 | 22.31259 | 113.92912 | 42 ft | 0 kts | 342° |
| 2026-05-04 02:00 | 22.31268 | 113.92909 | 42 ft | 1 kts | 342° |
| 2026-05-04 02:01 | 22.31276 | 113.92906 | 42 ft | 0 kts | 342° |